LOT4TL EPWA-KJFK
Flight info
| Callsign | LOT4TL |
|---|---|
| Flight time | N/A |
| Altitude | 36000 |
| Route | OLILA L621 SOMOR DCT LUSID DCT NERDO/N0479F380 DCT GUNPA/M082F380 DCT 62N010W 63N020W 63N030W 61N040W 59N050W/M083F400 DCT HOIST/N0476F400 N744A MIILS DCT ENE PARCH4 |
| Aircraft | B772/H-SDE2E3FGHIJ5LORVWXY/LB1D1 |
Departure
| Time | 2026-05-05 20:34 |
|---|---|
| Airport | Warsaw Chopin Airport (EPWA) |
Arrival
| Time | N/A |
|---|---|
| Airport | John F. Kennedy International Airport (KJFK) |
| Time | Latitude | Longitude | Altitude | Speed | Heading |
|---|---|---|---|---|---|
| 2026-05-05 19:47 | 52.17270 | 20.96892 | 350 ft | 0 kts | 62° |
| 2026-05-05 20:22 | 52.17261 | 20.96866 | 358 ft | 4 kts | 62° |
| 2026-05-05 20:22 | 52.17249 | 20.96827 | 351 ft | 4 kts | 71° |
| 2026-05-05 20:22 | 52.17245 | 20.96786 | 354 ft | 4 kts | 105° |
| 2026-05-05 20:23 | 52.17257 | 20.96753 | 354 ft | 3 kts | 149° |
| 2026-05-05 20:23 | 52.17261 | 20.96749 | 354 ft | 0 kts | 152° |
| 2026-05-05 20:25 | 52.17258 | 20.96751 | 343 ft | 3 kts | 152° |
| 2026-05-05 20:25 | 52.17214 | 20.96790 | 354 ft | 8 kts | 152° |
| 2026-05-05 20:25 | 52.17168 | 20.96790 | 348 ft | 7 kts | 222° |
| 2026-05-05 20:26 | 52.17143 | 20.96728 | 343 ft | 7 kts | 240° |
| 2026-05-05 20:26 | 52.17113 | 20.96675 | 348 ft | 7 kts | 205° |
| 2026-05-05 20:26 | 52.17069 | 20.96682 | 354 ft | 7 kts | 158° |
| 2026-05-05 20:26 | 52.17022 | 20.96719 | 351 ft | 11 kts | 152° |
| 2026-05-05 20:27 | 52.16957 | 20.96776 | 354 ft | 11 kts | 152° |
| 2026-05-05 20:27 | 52.16893 | 20.96832 | 344 ft | 11 kts | 152° |
| 2026-05-05 20:27 | 52.16803 | 20.96910 | 353 ft | 16 kts | 152° |
| 2026-05-05 20:27 | 52.16706 | 20.96995 | 350 ft | 11 kts | 152° |
| 2026-05-05 20:28 | 52.16656 | 20.97038 | 351 ft | 8 kts | 152° |
| 2026-05-05 20:28 | 52.16624 | 20.97066 | 354 ft | 6 kts | 152° |
| 2026-05-05 20:28 | 52.16570 | 20.97112 | 351 ft | 10 kts | 152° |
| 2026-05-05 20:28 | 52.16500 | 20.97173 | 351 ft | 12 kts | 152° |
| 2026-05-05 20:29 | 52.16429 | 20.97248 | 352 ft | 12 kts | 130° |
| 2026-05-05 20:29 | 52.16369 | 20.97444 | 352 ft | 27 kts | 114° |
| 2026-05-05 20:29 | 52.16291 | 20.97720 | 351 ft | 27 kts | 115° |
| 2026-05-05 20:29 | 52.16213 | 20.97997 | 350 ft | 27 kts | 114° |
| 2026-05-05 20:30 | 52.16156 | 20.98207 | 352 ft | 10 kts | 114° |
| 2026-05-05 20:30 | 52.16140 | 20.98299 | 347 ft | 8 kts | 103° |
| 2026-05-05 20:30 | 52.16124 | 20.98346 | 353 ft | 2 kts | 157° |
| 2026-05-05 20:30 | 52.16118 | 20.98345 | 353 ft | 0 kts | 183° |
| 2026-05-05 20:31 | 52.16112 | 20.98347 | 347 ft | 6 kts | 174° |
| 2026-05-05 20:31 | 52.16063 | 20.98343 | 350 ft | 7 kts | 194° |
| 2026-05-05 20:31 | 52.16016 | 20.98313 | 352 ft | 7 kts | 204° |
| 2026-05-05 20:31 | 52.15969 | 20.98279 | 351 ft | 8 kts | 205° |
| 2026-05-05 20:32 | 52.15918 | 20.98240 | 346 ft | 9 kts | 205° |
| 2026-05-05 20:32 | 52.15881 | 20.98203 | 354 ft | 3 kts | 242° |
| 2026-05-05 20:32 | 52.15886 | 20.98180 | 352 ft | 2 kts | 307° |
| 2026-05-05 20:32 | 52.15899 | 20.98192 | 354 ft | 2 kts | 49° |
| 2026-05-05 20:33 | 52.15908 | 20.98215 | 354 ft | 5 kts | 51° |
| 2026-05-05 20:33 | 52.15970 | 20.98276 | 354 ft | 13 kts | 25° |
| 2026-05-05 20:33 | 52.16053 | 20.98339 | 351 ft | 13 kts | 25° |
| 2026-05-05 20:33 | 52.16121 | 20.98325 | 353 ft | 11 kts | 306° |
| 2026-05-05 20:34 | 52.16194 | 20.98065 | 351 ft | 56 kts | 294° |
| 2026-05-05 20:34 | 52.16476 | 20.97040 | 350 ft | 139 kts | 294° |
| 2026-05-05 20:34 | 52.16982 | 20.95311 | 574 ft | 184 kts | 294° |
| 2026-05-05 20:34 | 52.17505 | 20.93470 | 1550 ft | 177 kts | 297° |
| 2026-05-05 20:35 | 52.18011 | 20.91626 | 2414 ft | 184 kts | 291° |
| 2026-05-05 20:35 | 52.18791 | 20.89883 | 2643 ft | 205 kts | 326° |
| 2026-05-05 20:35 | 52.20159 | 20.88947 | 2800 ft | 223 kts | 336° |
| 2026-05-05 20:35 | 52.21657 | 20.87941 | 2926 ft | 241 kts | 332° |
| 2026-05-05 20:36 | 52.23009 | 20.86261 | 3072 ft | 251 kts | 306° |
| 2026-05-05 20:36 | 52.24141 | 20.84046 | 3429 ft | 262 kts | 308° |
| 2026-05-05 20:36 | 52.25389 | 20.81848 | 4087 ft | 266 kts | 310° |
| 2026-05-05 20:36 | 52.26813 | 20.79904 | 4566 ft | 275 kts | 332° |
| 2026-05-05 20:37 | 52.28698 | 20.79144 | 5044 ft | 282 kts | 349° |
| 2026-05-05 20:37 | 52.30664 | 20.78627 | 5600 ft | 287 kts | 346° |
| 2026-05-05 20:37 | 52.32633 | 20.78024 | 6286 ft | 288 kts | 346° |
| 2026-05-05 20:37 | 52.34609 | 20.77428 | 6926 ft | 288 kts | 348° |
| 2026-05-05 20:38 | 52.36642 | 20.77355 | 7410 ft | 297 kts | 1° |
| 2026-05-05 20:38 | 52.38711 | 20.77686 | 8041 ft | 299 kts | 3° |
| 2026-05-05 20:38 | 52.40777 | 20.78041 | 8748 ft | 298 kts | 2° |
| 2026-05-05 20:38 | 52.42820 | 20.78339 | 9383 ft | 299 kts | 1° |
| 2026-05-05 20:39 | 52.44905 | 20.78607 | 9955 ft | 302 kts | 1° |
| 2026-05-05 20:39 | 52.47058 | 20.78865 | 10174 ft | 318 kts | 359° |
| 2026-05-05 20:39 | 52.49271 | 20.78471 | 10269 ft | 326 kts | 335° |
| 2026-05-05 20:39 | 52.51174 | 20.76410 | 10429 ft | 336 kts | 309° |
| 2026-05-05 20:40 | 52.52599 | 20.73333 | 10642 ft | 345 kts | 302° |
| 2026-05-05 20:40 | 52.54012 | 20.70076 | 11195 ft | 354 kts | 302° |
| 2026-05-05 20:40 | 52.55460 | 20.66778 | 11944 ft | 358 kts | 302° |
| 2026-05-05 20:40 | 52.56930 | 20.63453 | 12796 ft | 361 kts | 302° |
| 2026-05-05 20:41 | 52.58416 | 20.60098 | 13643 ft | 364 kts | 302° |
| 2026-05-05 20:41 | 52.59917 | 20.56709 | 14351 ft | 369 kts | 302° |
| 2026-05-05 20:41 | 52.61416 | 20.53316 | 15037 ft | 374 kts | 302° |
| 2026-05-05 20:41 | 52.62948 | 20.49831 | 15742 ft | 378 kts | 302° |
| 2026-05-05 20:42 | 52.64496 | 20.46299 | 16474 ft | 382 kts | 303° |
| 2026-05-05 20:42 | 52.66063 | 20.42722 | 17213 ft | 387 kts | 303° |
| 2026-05-05 20:42 | 52.67645 | 20.39109 | 17975 ft | 391 kts | 303° |
| 2026-05-05 20:42 | 52.69243 | 20.35452 | 18621 ft | 395 kts | 303° |
| 2026-05-05 20:43 | 52.70874 | 20.31766 | 19298 ft | 399 kts | 305° |
| 2026-05-05 20:43 | 52.72687 | 20.28260 | 19964 ft | 404 kts | 309° |
| 2026-05-05 20:43 | 52.74630 | 20.24853 | 20644 ft | 408 kts | 310° |
| 2026-05-05 20:43 | 52.76559 | 20.21485 | 21310 ft | 411 kts | 309° |
| 2026-05-05 20:44 | 52.78500 | 20.18001 | 22022 ft | 413 kts | 308° |
| 2026-05-05 20:44 | 52.80430 | 20.14469 | 22682 ft | 416 kts | 308° |
| 2026-05-05 20:44 | 52.82350 | 20.10861 | 23310 ft | 419 kts | 307° |
| 2026-05-05 20:44 | 52.84239 | 20.07138 | 23847 ft | 423 kts | 306° |
| 2026-05-05 20:45 | 52.88009 | 19.99566 | 24911 ft | 427 kts | 306° |
| 2026-05-05 20:45 | 52.89908 | 19.95757 | 25414 ft | 430 kts | 306° |
| 2026-05-05 20:45 | 52.91793 | 19.91984 | 25885 ft | 432 kts | 306° |
| 2026-05-05 20:46 | 52.93724 | 19.88126 | 26356 ft | 435 kts | 306° |
| 2026-05-05 20:46 | 52.95664 | 19.84250 | 26799 ft | 438 kts | 306° |
| 2026-05-05 20:46 | 52.97612 | 19.80354 | 27243 ft | 440 kts | 306° |
| 2026-05-05 20:46 | 52.99576 | 19.76420 | 27678 ft | 443 kts | 306° |
| 2026-05-05 20:47 | 53.01544 | 19.72472 | 28078 ft | 445 kts | 306° |
| 2026-05-05 20:47 | 53.03523 | 19.68494 | 28481 ft | 448 kts | 306° |
| 2026-05-05 20:47 | 53.05509 | 19.64498 | 28952 ft | 448 kts | 306° |
| 2026-05-05 20:47 | 53.07569 | 19.60597 | 29411 ft | 450 kts | 309° |
| 2026-05-05 20:48 | 53.09759 | 19.56839 | 29766 ft | 453 kts | 311° |
| 2026-05-05 20:48 | 53.12006 | 19.53116 | 30025 ft | 457 kts | 311° |
| 2026-05-05 20:48 | 53.14260 | 19.49378 | 30294 ft | 458 kts | 311° |
| 2026-05-05 20:48 | 53.16504 | 19.45608 | 30692 ft | 457 kts | 310° |
| 2026-05-05 20:49 | 53.18692 | 19.41883 | 31029 ft | 456 kts | 310° |